createdAt,value
2022-10-23T00:01:22.127Z,98684.03
2022-10-23T00:03:51.644Z,98686.75
2022-10-23T00:06:18.707Z,98692.22
2022-10-23T00:08:47.138Z,98686.75
2022-10-23T00:11:15.652Z,98697.66
2022-10-23T00:13:42.744Z,98697.66
2022-10-23T00:16:09.755Z,98705.84
2022-10-23T00:18:37.216Z,98704.78
2022-10-23T00:21:04.594Z,98698.50
2022-10-23T00:23:31.531Z,98710.25
2022-10-23T00:25:58.657Z,98706.91
2022-10-23T00:28:25.676Z,98705.84
2022-10-23T00:30:52.740Z,98712.38
2022-10-23T00:33:19.721Z,98706.06
2022-10-23T00:35:46.732Z,98705.25
2022-10-23T00:38:13.768Z,98705.03
2022-10-23T00:40:42.546Z,98700.41
2022-10-23T00:43:20.423Z,98703.13
2022-10-23T00:45:47.593Z,98690.53
2022-10-23T00:48:14.861Z,98699.34
2022-10-23T00:50:41.914Z,98709.41
2022-10-23T00:53:08.955Z,98712.16
2022-10-23T00:55:35.964Z,98702.06
2022-10-23T00:58:02.935Z,98696.59
2022-10-23T01:00:32.362Z,98707.53
2022-10-23T01:02:59.318Z,98698.50
2022-10-23T01:05:30.707Z,98710.25
2022-10-23T01:08:26.241Z,98707.53
2022-10-23T01:11:16.604Z,98712.97
2022-10-23T01:14:15.287Z,98714.03
2022-10-23T01:17:14.756Z,98714.03
2022-10-23T01:20:20.566Z,98713.19
2022-10-23T01:23:28.511Z,98724.94
2022-10-23T01:26:23.363Z,98720.56
2022-10-23T01:29:16.218Z,98720.56
2022-10-23T01:31:45.772Z,98724.94
2022-10-23T01:34:15.017Z,98720.31
2022-10-23T01:36:42.597Z,98728.50
2022-10-23T01:39:12.574Z,98730.41
2022-10-23T01:42:00.217Z,98724.13
2022-10-23T01:44:42.368Z,98728.75
2022-10-23T01:47:10.169Z,98732.31
2022-10-23T01:49:37.702Z,98726.22
2022-10-23T01:52:05.910Z,98730.63
2022-10-23T01:54:36.079Z,98734.19
2022-10-23T01:57:03.078Z,98736.09
2022-10-23T01:59:35.616Z,98730.84
2022-10-23T02:02:02.710Z,98727.06
2022-10-23T02:04:46.735Z,98729.78
2022-10-23T02:07:13.685Z,98735.25
2022-10-23T02:09:40.626Z,98732.31
2022-10-23T02:12:14.818Z,98728.75
2022-10-23T02:14:51.359Z,98720.56
2022-10-23T02:17:24.912Z,98724.13
2022-10-23T02:20:16.631Z,98732.31
2022-10-23T02:22:56.094Z,98733.97
2022-10-23T02:25:28.767Z,98735.88
2022-10-23T02:27:56.652Z,98744.06
2022-10-23T02:30:23.604Z,98745.09
2022-10-23T02:32:54.296Z,98749.50
2022-10-23T02:35:22.898Z,98742.38
2022-10-23T02:37:54.755Z,98738.81
2022-10-23T02:40:21.691Z,98739.66
2022-10-23T02:42:54.490Z,98743.44
2022-10-23T02:45:37.665Z,98748.91
2022-10-23T02:48:17.973Z,98748.06
2022-10-23T02:50:54.613Z,98758.97
2022-10-23T02:53:33.116Z,98753.50
2022-10-23T02:56:41.529Z,98760.63
2022-10-23T02:59:37.794Z,98764.22
2022-10-23T03:02:09.679Z,98765.03
2022-10-23T03:04:36.831Z,98772.38
2022-10-23T03:07:03.773Z,98773.22
2022-10-23T03:09:31.413Z,98772.38
2022-10-23T03:11:58.380Z,98766.94
2022-10-23T03:14:25.338Z,98761.69
2022-10-23T03:16:52.306Z,98753.50
2022-10-23T03:19:19.236Z,98759.81
2022-10-23T03:21:46.211Z,98760.88
2022-10-23T03:24:13.236Z,98764.44
2022-10-23T03:26:40.156Z,98760.06
2022-10-23T03:29:07.211Z,98759.22
2022-10-23T03:31:34.185Z,98767.41
2022-10-23T03:34:04.017Z,98757.56
2022-10-23T03:36:33.198Z,98760.88
2022-10-23T03:39:00.550Z,98767.41
2022-10-23T03:41:27.501Z,98762.78
2022-10-23T03:43:54.537Z,98764.44
2022-10-23T03:46:21.541Z,98764.44
2022-10-23T03:48:48.496Z,98762.78
2022-10-23T03:51:15.508Z,98782.47
2022-10-23T03:53:42.452Z,98777.00
2022-10-23T03:56:09.422Z,98780.78
2022-10-23T03:58:36.517Z,98779.97
2022-10-23T04:01:03.575Z,98787.09
2022-10-23T04:03:30.567Z,98781.63
2022-10-23T04:05:57.531Z,98789.81
2022-10-23T04:08:24.483Z,98779.97
2022-10-23T04:10:51.440Z,98769.03
2022-10-23T04:13:18.375Z,98767.41
2022-10-23T04:15:49.645Z,98771.78
2022-10-23T04:18:16.871Z,98766.31
2022-10-23T04:20:43.928Z,98774.50
2022-10-23T04:23:10.899Z,98755.41
2022-10-23T04:25:37.880Z,98762.78
2022-10-23T04:28:04.991Z,98756.50
2022-10-23T04:30:31.953Z,98762.78
2022-10-23T04:32:59.006Z,98754.34
2022-10-23T04:35:26.117Z,98754.34
2022-10-23T04:37:53.109Z,98759.81
2022-10-23T04:40:20.113Z,98748.91
2022-10-23T04:42:47.061Z,98748.06
2022-10-23T04:45:14.016Z,98746.16
2022-10-23T04:47:40.965Z,98748.91
2022-10-23T04:50:08.167Z,98748.91
2022-10-23T04:52:35.139Z,98748.91
2022-10-23T04:55:02.106Z,98764.44
2022-10-23T04:57:29.077Z,98758.13
2022-10-23T04:59:56.035Z,98760.06
2022-10-23T05:02:24.607Z,98764.22
2022-10-23T05:04:51.579Z,98740.97
2022-10-23T05:07:18.514Z,98748.06
2022-10-23T05:09:45.497Z,98730.84
2022-10-23T05:12:12.473Z,98736.31
2022-10-23T05:14:39.387Z,98743.44
2022-10-23T05:17:16.739Z,98757.06
2022-10-23T05:19:57.769Z,98751.63
2022-10-23T05:22:26.336Z,98765.25
2022-10-23T05:24:54.134Z,98757.06
2022-10-23T05:27:21.104Z,98756.03
2022-10-23T05:29:48.034Z,98755.19
2022-10-23T05:32:15.262Z,98756.03
2022-10-23T05:34:42.224Z,98758.97
2022-10-23T05:37:10.923Z,98754.34
2022-10-23T05:39:37.888Z,98751.63
2022-10-23T05:42:04.971Z,98754.34
2022-10-23T05:44:31.922Z,98766.09
2022-10-23T05:46:58.935Z,98764.44
2022-10-23T05:49:26.242Z,98764.69
2022-10-23T05:51:53.239Z,98768.00
2022-10-23T05:54:20.196Z,98774.50
2022-10-23T05:56:47.172Z,98774.50
2022-10-23T05:59:15.924Z,98786.50
2022-10-23T06:01:44.836Z,98794.22
2022-10-23T06:04:11.885Z,98791.50
2022-10-23T06:06:38.836Z,98799.66
2022-10-23T06:09:05.751Z,98803.47
2022-10-23T06:11:32.729Z,98805.13
2022-10-23T06:14:01.311Z,98805.13
2022-10-23T06:16:29.117Z,98816.03
2022-10-23T06:18:57.696Z,98811.41
2022-10-23T06:21:24.939Z,98816.03
2022-10-23T06:23:51.994Z,98818.78
2022-10-23T06:26:19.603Z,98821.50
2022-10-23T06:28:46.585Z,98819.00
2022-10-23T06:31:14.795Z,98837.03
2022-10-23T06:33:41.965Z,98839.97
2022-10-23T06:36:10.862Z,98839.97
2022-10-23T06:38:40.706Z,98836.19
2022-10-23T06:41:20.593Z,98834.31
2022-10-23T06:43:51.422Z,98833.25
2022-10-23T06:46:19.044Z,98835.75
2022-10-23T06:48:46.049Z,98843.94
2022-10-23T06:51:15.074Z,98843.94
2022-10-23T06:53:42.263Z,98836.56
2022-10-23T06:56:09.340Z,98839.28
2022-10-23T06:58:36.955Z,98842.84
2022-10-23T07:01:05.676Z,98839.06
2022-10-23T07:03:32.905Z,98843.69
2022-10-23T07:06:06.799Z,98832.78
2022-10-23T07:08:33.820Z,98827.09
2022-10-23T07:11:05.576Z,98831.50
2022-10-23T07:13:33.940Z,98836.97
2022-10-23T07:16:10.368Z,98832.09
2022-10-23T07:18:37.310Z,98835.66
2022-10-23T07:21:04.365Z,98843.84
2022-10-23T07:23:31.304Z,98844.66
2022-10-23T07:26:09.850Z,98844.44
2022-10-23T07:28:36.922Z,98850.75
2022-10-23T07:31:03.953Z,98844.19
2022-10-23T07:33:30.888Z,98833.28
2022-10-23T07:35:57.863Z,98829.72
2022-10-23T07:38:24.829Z,98833.88
2022-10-23T07:40:51.808Z,98836.84
2022-10-23T07:43:21.029Z,98838.50
2022-10-23T07:45:49.024Z,98832.22
2022-10-23T07:48:16.439Z,98827.59
2022-10-23T07:50:43.491Z,98833.88
2022-10-23T07:53:20.968Z,98828.44
2022-10-23T07:56:00.383Z,98827.38
2022-10-23T07:58:27.561Z,98820.03
2022-10-23T08:00:59.365Z,98834.47
2022-10-23T08:03:27.303Z,98838.03
2022-10-23T08:05:54.588Z,98844.34
2022-10-23T08:08:25.179Z,98836.16
2022-10-23T08:10:53.056Z,98833.41
2022-10-23T08:13:22.689Z,98840.53
2022-10-23T08:15:51.146Z,98836.75
2022-10-23T08:18:18.199Z,98846.63
2022-10-23T08:20:46.603Z,98844.34
2022-10-23T08:23:13.872Z,98851.81
2022-10-23T08:25:40.970Z,98857.28
2022-10-23T08:28:08.046Z,98852.66
2022-10-23T08:30:35.300Z,98860.84
2022-10-23T08:33:06.870Z,98865.25
2022-10-23T08:35:39.972Z,98867.97
2022-10-23T08:38:07.006Z,98874.03
2022-10-23T08:40:34.251Z,98869.66
2022-10-23T08:43:29.120Z,98867.97
2022-10-23T08:45:58.887Z,98865.03
2022-10-23T08:48:38.441Z,98872.97
2022-10-23T08:51:14.883Z,98867.50
2022-10-23T08:53:53.469Z,98867.28
2022-10-23T08:56:28.398Z,98874.41
2022-10-23T08:59:05.666Z,98872.50
2022-10-23T09:01:47.379Z,98878.78
2022-10-23T09:04:14.661Z,98882.34
2022-10-23T09:06:46.890Z,98885.09
2022-10-23T09:09:32.722Z,98879.41
2022-10-23T09:12:09.384Z,98881.06
2022-10-23T09:14:41.002Z,98880.22
2022-10-23T09:17:28.016Z,98876.66
2022-10-23T09:20:13.672Z,98878.56
2022-10-23T09:22:41.109Z,98886.53
2022-10-23T09:25:21.233Z,98892.81
2022-10-23T09:27:56.705Z,98895.31
2022-10-23T09:30:34.717Z,98895.56
2022-10-23T09:33:01.894Z,98890.69
2022-10-23T09:35:29.962Z,98887.38
2022-10-23T09:37:57.077Z,98886.88
2022-10-23T09:40:42.987Z,98881.44
2022-10-23T09:43:17.887Z,98886.88
2022-10-23T09:45:44.928Z,98886.66
2022-10-23T09:48:16.952Z,98897.59
2022-10-23T09:51:00.101Z,98890.19
2022-10-23T09:53:39.097Z,98900.94
2022-10-23T09:56:27.039Z,98906.41
2022-10-23T09:59:14.331Z,98902.84
2022-10-23T10:01:58.264Z,98901.78
2022-10-23T10:04:33.371Z,98892.75
2022-10-23T10:07:02.172Z,98900.72
2022-10-23T10:09:29.152Z,98901.78
2022-10-23T10:12:00.651Z,98899.03
2022-10-23T10:14:52.293Z,98889.19
2022-10-23T10:17:28.419Z,98878.03
2022-10-23T10:20:14.273Z,98886.00
2022-10-23T10:23:03.576Z,98886.00
2022-10-23T10:25:33.361Z,98880.53
2022-10-23T10:28:04.560Z,98879.47
2022-10-23T10:30:59.286Z,98872.94
2022-10-23T10:33:47.622Z,98866.63
2022-10-23T10:36:35.719Z,98863.69
2022-10-23T10:39:03.664Z,98861.53
2022-10-23T10:41:52.890Z,98858.22
2022-10-23T10:44:25.827Z,98848.97
2022-10-23T10:47:26.987Z,98848.72
2022-10-23T10:50:09.050Z,98842.44
2022-10-23T10:52:45.323Z,98841.38
2022-10-23T10:55:36.121Z,98824.16
2022-10-23T10:58:14.964Z,98825.81
2022-10-23T11:00:41.989Z,98823.31
2022-10-23T11:04:01.595Z,98816.56
2022-10-23T11:06:30.358Z,98822.88
2022-10-23T11:09:19.399Z,98809.78
2022-10-23T11:11:45.559Z,98807.91
2022-10-23T11:14:17.081Z,98799.47
2022-10-23T11:16:46.985Z,98798.41
2022-10-23T11:19:36.764Z,98787.25
2022-10-23T11:22:24.910Z,98787.00
2022-10-23T11:24:58.434Z,98779.44
2022-10-23T11:27:38.132Z,98779.44
2022-10-23T11:30:19.565Z,98760.88
2022-10-23T11:33:00.288Z,98769.09
2022-10-23T11:35:44.157Z,98771.59
2022-10-23T11:38:13.874Z,98777.88
2022-10-23T11:40:48.515Z,98758.28
2022-10-23T11:43:37.165Z,98751.75
2022-10-23T11:46:35.349Z,98752.81
2022-10-23T11:49:03.499Z,98757.78
2022-10-23T11:51:40.282Z,98756.72
2022-10-23T11:54:28.620Z,98749.38
2022-10-23T11:57:02.429Z,98732.97
2022-10-23T11:59:30.807Z,98730.03
2022-10-23T12:01:59.890Z,98727.03
2022-10-23T12:04:47.399Z,98722.41
2022-10-23T12:07:24.938Z,98713.16
2022-10-23T12:10:03.465Z,98707.69
2022-10-23T12:12:41.174Z,98702.22
2022-10-23T12:15:14.895Z,98695.69
2022-10-23T12:17:42.922Z,98695.69
2022-10-23T12:20:12.735Z,98699.00
2022-10-23T12:22:51.414Z,98694.59
2022-10-23T12:25:45.286Z,98696.88
2022-10-23T12:28:50.691Z,98708.16
2022-10-23T12:31:39.999Z,98704.94
2022-10-23T12:34:14.471Z,98700.91
2022-10-23T12:36:47.798Z,98700.41
2022-10-23T12:39:36.708Z,98701.84
2022-10-23T12:42:03.891Z,98703.84
2022-10-23T12:44:30.950Z,98703.38
2022-10-23T12:46:59.662Z,98693.00
2022-10-23T12:49:28.144Z,98686.00
2022-10-23T12:52:05.686Z,98695.38
2022-10-23T12:54:33.794Z,98690.50
2022-10-23T12:57:00.715Z,98691.66
2022-10-23T12:59:32.705Z,98678.59
2022-10-23T13:02:00.151Z,98681.91
2022-10-23T13:04:27.214Z,98678.69
2022-10-23T13:06:59.179Z,98671.91
2022-10-23T13:09:42.486Z,98675.22
2022-10-23T13:12:12.288Z,98676.88
2022-10-23T13:14:43.719Z,98672.84
2022-10-23T13:17:11.899Z,98669.03
2022-10-23T13:19:38.905Z,98669.59
2022-10-23T13:22:22.010Z,98663.09
2022-10-23T13:24:48.956Z,98664.78
2022-10-23T13:27:35.056Z,98672.97
2022-10-23T13:30:03.202Z,98666.66
2022-10-23T13:32:32.042Z,98665.59
2022-10-23T13:35:20.446Z,98670.81
2022-10-23T13:37:48.681Z,98662.22
2022-10-23T13:40:26.446Z,98662.59
2022-10-23T13:42:54.617Z,98663.44
2022-10-23T13:45:25.597Z,98653.34
2022-10-23T13:47:52.583Z,98652.50
2022-10-23T13:53:30.735Z,98654.66
2022-10-23T14:46:32.634Z,98632.31
2022-10-23T14:49:02.318Z,98637.78
2022-10-23T14:51:30.866Z,98636.16
2022-10-23T14:54:02.170Z,98636.16
2022-10-23T14:56:29.608Z,98630.69
2022-10-23T14:59:02.969Z,98637.22
2022-10-23T15:01:34.299Z,98631.16
2022-10-23T15:04:01.494Z,98624.84
2022-10-23T15:06:28.527Z,98627.84
2022-10-23T15:08:56.070Z,98619.63
2022-10-23T15:11:26.342Z,98617.97
2022-10-23T15:13:54.895Z,98619.03
2022-10-23T15:16:22.426Z,98617.38
2022-10-23T15:18:49.345Z,98610.28
2022-10-23T15:21:16.428Z,98616.53
2022-10-23T15:23:44.593Z,98605.88
2022-10-23T15:26:21.985Z,98608.59
2022-10-23T15:29:00.194Z,98606.09
2022-10-23T15:31:29.866Z,98616.22
2022-10-23T15:33:57.605Z,98614.53
2022-10-23T15:36:24.498Z,98611.81
2022-10-23T15:38:51.418Z,98612.66
2022-10-23T15:41:22.617Z,98611.81
2022-10-23T15:46:17.333Z,98621.13
2022-10-23T15:48:44.274Z,98613.16
2022-10-23T15:51:11.202Z,98607.09
2022-10-23T15:53:57.228Z,98610.66
2022-10-23T15:56:24.809Z,98610.91
2022-10-23T15:58:51.741Z,98612.81
2022-10-23T16:01:18.868Z,98608.41
2022-10-23T16:03:45.984Z,98605.06
2022-10-23T16:06:14.092Z,98624.19
2022-10-23T16:08:41.064Z,98619.81
2022-10-23T16:11:21.941Z,98608.88
2022-10-23T16:13:49.002Z,98614.59
2022-10-23T16:16:16.465Z,98618.16
2022-10-23T16:18:44.366Z,98623.03
2022-10-23T16:21:32.023Z,98630.41
2022-10-23T16:23:59.907Z,98635.06
2022-10-23T16:26:27.576Z,98637.19
2022-10-23T16:28:55.380Z,98650.88
2022-10-23T16:31:23.460Z,98653.00
2022-10-23T16:33:50.609Z,98654.94
2022-10-23T16:36:17.640Z,98654.94
2022-10-23T16:38:44.573Z,98652.19
2022-10-23T16:41:11.455Z,98646.97
2022-10-23T16:43:38.507Z,98655.16
2022-10-23T16:46:18.709Z,98657.91
2022-10-23T16:48:45.723Z,98653.72
2022-10-23T16:51:14.499Z,98655.66
2022-10-23T16:53:41.836Z,98656.72
2022-10-23T16:56:09.622Z,98652.09
2022-10-23T16:58:36.767Z,98659.69
2022-10-23T17:01:08.420Z,98656.97
2022-10-23T17:03:39.934Z,98660.53
2022-10-23T17:06:08.948Z,98663.50
2022-10-23T17:08:38.145Z,98658.28
2022-10-23T17:11:05.000Z,98661.03
2022-10-23T17:13:39.746Z,98667.31
2022-10-23T17:16:13.071Z,98666.50
2022-10-23T17:18:43.670Z,98664.81
2022-10-23T17:21:11.941Z,98666.50
2022-10-23T17:23:38.871Z,98678.50
2022-10-23T17:26:09.745Z,98664.81
2022-10-23T17:28:41.916Z,98673.84
2022-10-23T17:31:23.329Z,98662.91
2022-10-23T17:33:52.348Z,98664.81
2022-10-23T17:36:19.710Z,98670.28
2022-10-23T17:38:46.649Z,98665.06
2022-10-23T17:41:15.545Z,98669.44
2022-10-23T17:43:42.672Z,98662.31
2022-10-23T17:46:10.117Z,98655.22
2022-10-23T17:48:37.170Z,98649.75
2022-10-23T17:51:09.274Z,98654.38
2022-10-23T17:53:36.915Z,98644.28
2022-10-23T17:56:05.301Z,98642.63
2022-10-23T17:58:32.490Z,98637.16
2022-10-23T18:01:09.573Z,98644.53
2022-10-23T18:03:36.841Z,98633.81
2022-10-23T18:06:24.595Z,98633.81
2022-10-23T18:08:54.684Z,98628.34
2022-10-23T18:11:24.243Z,98629.19
2022-10-23T18:13:51.907Z,98629.19
2022-10-23T18:16:19.094Z,98629.19
2022-10-23T18:18:48.412Z,98623.72
2022-10-23T18:21:16.286Z,98622.88
2022-10-23T18:23:44.228Z,98631.09
2022-10-23T18:26:24.984Z,98634.66
2022-10-23T18:28:53.143Z,98633.81
2022-10-23T18:31:20.297Z,98627.53
2022-10-23T18:33:47.361Z,98627.53
2022-10-23T18:36:16.001Z,98622.06
2022-10-23T18:38:43.156Z,98616.59
2022-10-23T18:41:10.323Z,98606.75
2022-10-23T18:43:43.771Z,98610.28
2022-10-23T18:46:14.132Z,98606.75
2022-10-23T18:48:41.599Z,98605.91
2022-10-23T18:51:22.072Z,98602.59
2022-10-23T18:53:49.117Z,98602.34
2022-10-23T18:56:16.517Z,98605.09
2022-10-23T18:58:43.493Z,98602.34
2022-10-23T19:01:29.558Z,98605.09
2022-10-23T19:03:57.879Z,98602.34
2022-10-23T19:06:25.120Z,98604.25
2022-10-23T19:08:52.169Z,98594.38
2022-10-23T19:11:20.218Z,98591.41
2022-10-23T19:13:47.278Z,98580.97
2022-10-23T19:16:17.611Z,98590.81
2022-10-23T19:18:47.348Z,98586.44
2022-10-23T19:21:15.164Z,98587.25
2022-10-23T19:23:42.135Z,98589.16
2022-10-23T19:26:12.169Z,98589.41
2022-10-23T19:28:41.385Z,98593.22
2022-10-23T19:31:08.606Z,98585.84
2022-10-23T19:33:36.334Z,98587.75
2022-10-23T19:36:05.509Z,98581.47
2022-10-23T19:38:34.464Z,98594.06
2022-10-23T19:41:02.028Z,98600.03
2022-10-23T19:43:29.020Z,98611.50
2022-10-23T19:45:55.923Z,98596.19
2022-10-23T19:48:22.894Z,98612.59
2022-10-23T19:50:49.876Z,98604.66
2022-10-23T19:53:17.146Z,98619.38
2022-10-23T19:55:44.240Z,98612.00
2022-10-23T19:58:11.271Z,98612.25
2022-10-23T20:00:38.175Z,98603.81
2022-10-23T20:03:05.228Z,98597.75
2022-10-23T20:05:32.209Z,98582.41
2022-10-23T20:07:59.158Z,98575.31
2022-10-23T20:10:26.154Z,98575.31
2022-10-23T20:12:57.015Z,98567.13
2022-10-23T20:15:40.353Z,98568.19
2022-10-23T20:18:07.316Z,98558.31
2022-10-23T20:20:34.258Z,98556.44
2022-10-23T20:23:01.233Z,98547.41
2022-10-23T20:25:28.173Z,98559.16
2022-10-23T20:27:55.353Z,98564.84
2022-10-23T20:30:22.323Z,98559.41
2022-10-23T20:32:49.221Z,98563.22
2022-10-23T20:35:16.249Z,98558.00
2022-10-23T20:37:43.391Z,98554.44
2022-10-23T20:40:10.832Z,98563.69
2022-10-23T20:42:37.771Z,98556.56
2022-10-23T20:45:05.221Z,98547.78
2022-10-23T20:47:32.144Z,98542.34
2022-10-23T20:49:59.071Z,98549.69
2022-10-23T20:52:27.784Z,98536.28
2022-10-23T20:54:54.723Z,98529.75
2022-10-23T20:57:21.612Z,98538.16
2022-10-23T20:59:48.523Z,98536.28
2022-10-23T21:02:15.479Z,98533.53
2022-10-23T21:04:42.541Z,98538.16
2022-10-23T21:07:11.158Z,98540.09
2022-10-23T21:09:39.239Z,98536.53
2022-10-23T21:12:06.891Z,98544.72
2022-10-23T21:14:34.279Z,98534.03
2022-10-23T21:17:01.296Z,98541.16
2022-10-23T21:19:28.275Z,98534.03
2022-10-23T21:21:55.304Z,98531.53
2022-10-23T21:24:22.550Z,98530.69
2022-10-23T21:26:49.530Z,98525.25
2022-10-23T21:29:19.159Z,98525.25
2022-10-23T21:31:55.186Z,98523.59
2022-10-23T21:34:23.566Z,98527.41
2022-10-23T21:39:38.505Z,98533.69
2022-10-23T21:42:05.614Z,98529.06
2022-10-23T21:44:32.572Z,98534.53
2022-10-23T21:46:59.498Z,98531.81
2022-10-23T21:49:26.850Z,98534.53
2022-10-23T21:51:55.263Z,98527.41
2022-10-23T21:54:22.329Z,98530.13
2022-10-23T21:56:51.393Z,98518.63
2022-10-23T21:59:19.977Z,98513.97
2022-10-23T22:01:47.646Z,98508.78
2022-10-23T22:04:15.645Z,98507.13
2022-10-23T22:06:42.763Z,98501.06
2022-10-23T22:09:11.216Z,98500.22
2022-10-23T22:11:38.272Z,98500.50
2022-10-23T22:14:05.191Z,98495.25
2022-10-23T22:16:32.229Z,98481.03
2022-10-23T22:18:59.273Z,98476.38
2022-10-23T22:21:27.582Z,98476.38
2022-10-23T22:23:55.608Z,98475.56
2022-10-23T22:26:28.463Z,98473.66
2022-10-23T22:28:56.930Z,98467.13
2022-10-23T22:31:25.492Z,98467.94
2022-10-23T22:33:52.734Z,98475.31
2022-10-23T22:36:19.674Z,98475.56
2022-10-23T22:38:46.732Z,98480.44
2022-10-23T22:41:13.850Z,98483.16
2022-10-23T22:43:40.798Z,98471.41
2022-10-23T22:46:08.523Z,98470.00
2022-10-23T22:48:36.012Z,98465.63
2022-10-23T22:51:03.324Z,98473.22
2022-10-23T22:53:30.238Z,98469.66
2022-10-23T22:55:57.198Z,98483.31
2022-10-23T22:58:25.126Z,98470.75
2022-10-23T23:00:53.074Z,98477.28
2022-10-23T23:03:20.073Z,98468.25
2022-10-23T23:05:47.808Z,98460.66
2022-10-23T23:08:14.968Z,98458.72
2022-10-23T23:10:41.862Z,98456.81
2022-10-23T23:13:08.798Z,98463.13
2022-10-23T23:15:40.485Z,98464.78
2022-10-23T23:18:07.444Z,98471.09
2022-10-23T23:20:34.850Z,98463.94
2022-10-23T23:23:01.912Z,98454.09
2022-10-23T23:25:28.801Z,98459.81
2022-10-23T23:27:55.736Z,98448.91
2022-10-23T23:30:22.768Z,98442.84
2022-10-23T23:32:51.381Z,98445.56
2022-10-23T23:35:19.525Z,98438.44
2022-10-23T23:37:46.856Z,98443.06
2022-10-23T23:40:13.983Z,98446.91
2022-10-23T23:42:40.898Z,98446.31
2022-10-23T23:45:14.792Z,98443.56
2022-10-23T23:47:42.338Z,98445.47
2022-10-23T23:50:10.286Z,98444.41
2022-10-23T23:52:37.246Z,98446.06
2022-10-23T23:55:04.426Z,98454.00
2022-10-23T23:57:31.303Z,98450.47
2022-10-23T23:59:58.223Z,98445.00
